createdAt,value
2023-12-15T00:00:29.284Z,0.30
2023-12-15T00:02:57.201Z,0.30
2023-12-15T00:05:24.037Z,0.20
2023-12-15T00:07:50.801Z,0.10
2023-12-15T00:10:17.566Z,0.20
2023-12-15T00:12:44.378Z,0.10
2023-12-15T00:15:11.362Z,0.10
2023-12-15T00:17:38.776Z,0.10
2023-12-15T00:20:06.594Z,0.10
2023-12-15T00:22:33.338Z,0.20
2023-12-15T00:25:00.062Z,0.30
2023-12-15T00:27:26.798Z,0.30
2023-12-15T00:29:53.593Z,0.30
2023-12-15T00:32:20.365Z,0.30
2023-12-15T00:34:47.079Z,0.30
2023-12-15T00:37:13.877Z,0.30
2023-12-15T00:39:40.586Z,0.30
2023-12-15T00:42:07.475Z,0.30
2023-12-15T00:44:34.823Z,0.40
2023-12-15T00:47:02.574Z,0.40
2023-12-15T00:49:29.534Z,0.50
2023-12-15T00:51:56.423Z,0.50
2023-12-15T00:54:23.261Z,0.50
2023-12-15T00:56:50.708Z,0.50
2023-12-15T00:59:18.097Z,0.50
2023-12-15T01:01:44.928Z,0.50
2023-12-15T01:04:11.989Z,0.50
2023-12-15T01:06:38.737Z,0.60
2023-12-15T01:09:06.144Z,0.60
2023-12-15T01:11:33.066Z,0.60
2023-12-15T01:13:59.980Z,0.50
2023-12-15T01:16:27.126Z,0.50
2023-12-15T01:18:54.137Z,0.50
2023-12-15T01:21:20.900Z,0.50
2023-12-15T01:23:47.637Z,0.40
2023-12-15T01:26:14.452Z,0.40
2023-12-15T01:28:41.299Z,0.30
2023-12-15T01:31:08.088Z,0.30
2023-12-15T01:33:34.847Z,0.30
2023-12-15T01:36:01.642Z,0.20
2023-12-15T01:38:28.654Z,0.20
2023-12-15T01:40:55.455Z,0.20
2023-12-15T01:43:22.163Z,0.20
2023-12-15T01:45:55.462Z,0.10
2023-12-15T01:48:31.146Z,0.10
2023-12-15T01:50:57.942Z,0.00
2023-12-15T01:53:24.797Z,0.00
2023-12-15T01:55:51.575Z,0.10
2023-12-15T01:58:18.366Z,0.10
2023-12-15T02:00:48.348Z,0.10
2023-12-15T02:03:17.680Z,0.20
2023-12-15T02:05:44.459Z,0.20
2023-12-15T02:08:11.436Z,0.20
2023-12-15T02:10:40.944Z,0.30
2023-12-15T02:13:08.197Z,0.30
2023-12-15T02:15:35.183Z,0.30
2023-12-15T02:18:02.138Z,0.30
2023-12-15T02:20:29.529Z,0.30
2023-12-15T02:22:58.889Z,0.30
2023-12-15T02:25:25.958Z,0.20
2023-12-15T02:27:52.761Z,0.30
2023-12-15T02:30:19.507Z,0.30
2023-12-15T02:32:46.398Z,0.30
2023-12-15T02:35:15.471Z,0.20
2023-12-15T02:37:42.358Z,0.20
2023-12-15T02:40:09.498Z,0.20
2023-12-15T02:42:36.339Z,0.20
2023-12-15T02:45:03.242Z,0.20
2023-12-15T02:47:30.303Z,0.20
2023-12-15T02:49:57.339Z,0.30
2023-12-15T02:52:24.070Z,0.20
2023-12-15T02:54:50.794Z,0.30
2023-12-15T02:57:17.497Z,0.30
2023-12-15T02:59:44.241Z,0.30
2023-12-15T03:02:11.026Z,0.30
2023-12-15T03:04:37.733Z,0.30
2023-12-15T03:07:04.698Z,0.30
2023-12-15T03:09:31.400Z,0.30
2023-12-15T03:11:58.340Z,0.30
2023-12-15T03:14:25.113Z,0.20
2023-12-15T03:16:51.958Z,0.20
2023-12-15T03:19:18.715Z,0.20
2023-12-15T03:21:45.449Z,0.10
2023-12-15T03:24:12.147Z,0.00
2023-12-15T03:26:38.881Z,0.00
2023-12-15T03:29:05.627Z,0.00
2023-12-15T03:31:32.436Z,-0.10
2023-12-15T03:33:59.165Z,-0.10
2023-12-15T03:36:25.933Z,-0.20
2023-12-15T03:38:52.681Z,-0.20
2023-12-15T03:41:19.573Z,-0.20
2023-12-15T03:43:46.280Z,-0.30
2023-12-15T03:46:13.004Z,-0.40
2023-12-15T03:48:39.757Z,-0.30
2023-12-15T03:51:06.757Z,-0.20
2023-12-15T03:53:33.501Z,-0.20
2023-12-15T03:56:00.706Z,-0.10
2023-12-15T03:58:27.413Z,0.00
2023-12-15T04:00:54.680Z,0.10
2023-12-15T04:03:21.590Z,0.20
2023-12-15T04:05:48.498Z,0.20
2023-12-15T04:08:15.330Z,0.30
2023-12-15T04:10:42.121Z,0.30
2023-12-15T04:13:08.836Z,0.30
2023-12-15T04:15:35.588Z,0.40
2023-12-15T04:18:06.021Z,0.40
2023-12-15T04:20:33.205Z,0.50
2023-12-15T04:23:00.014Z,0.50
2023-12-15T04:25:27.413Z,0.50
2023-12-15T04:27:54.217Z,0.60
2023-12-15T04:30:21.131Z,0.70
2023-12-15T04:32:48.048Z,0.70
2023-12-15T04:35:14.816Z,0.70
2023-12-15T04:37:45.908Z,0.70
2023-12-15T04:40:14.387Z,0.80
2023-12-15T04:42:41.595Z,0.80
2023-12-15T04:45:09.599Z,0.80
2023-12-15T04:47:37.137Z,0.80
2023-12-15T04:50:04.801Z,0.80
2023-12-15T04:52:31.568Z,1.00
2023-12-15T04:54:58.396Z,0.90
2023-12-15T04:57:25.103Z,0.90
2023-12-15T04:59:51.901Z,0.90
2023-12-15T05:02:18.680Z,0.90
2023-12-15T05:04:45.453Z,0.90
2023-12-15T05:07:12.413Z,0.90
2023-12-15T05:09:39.192Z,0.90
2023-12-15T05:12:07.428Z,1.00
2023-12-15T05:14:34.244Z,1.00
2023-12-15T05:17:01.058Z,1.00
2023-12-15T05:19:28.000Z,1.00
2023-12-15T05:21:54.897Z,1.00
2023-12-15T05:24:21.632Z,1.00
2023-12-15T05:26:48.514Z,1.00
2023-12-15T05:29:15.466Z,1.00
2023-12-15T05:31:45.482Z,1.00
2023-12-15T05:34:12.272Z,1.00
2023-12-15T05:36:41.034Z,1.00
2023-12-15T05:39:08.440Z,1.00
2023-12-15T05:41:35.431Z,1.00
2023-12-15T05:44:02.275Z,1.00
2023-12-15T05:46:29.000Z,1.00
2023-12-15T05:48:56.034Z,1.10
2023-12-15T05:51:22.995Z,1.10
2023-12-15T05:53:55.642Z,1.10
2023-12-15T05:56:25.140Z,1.10
2023-12-15T05:58:52.019Z,1.20
2023-12-15T06:01:18.772Z,1.20
2023-12-15T06:03:45.725Z,1.20
2023-12-15T06:06:15.754Z,1.20
2023-12-15T06:08:42.566Z,1.20
2023-12-15T06:11:09.277Z,1.20
2023-12-15T06:13:36.048Z,1.20
2023-12-15T06:16:03.039Z,1.20
2023-12-15T06:18:29.854Z,1.20
2023-12-15T06:20:56.672Z,1.10
2023-12-15T06:23:23.433Z,1.10
2023-12-15T06:25:50.201Z,1.00
2023-12-15T06:28:16.885Z,1.00
2023-12-15T06:30:43.761Z,1.00
2023-12-15T06:33:10.714Z,1.00
2023-12-15T06:35:37.626Z,0.90
2023-12-15T06:38:04.476Z,0.80
2023-12-15T06:40:31.269Z,0.80
2023-12-15T06:42:57.982Z,0.80
2023-12-15T06:45:24.688Z,0.70
2023-12-15T06:47:51.562Z,0.60
2023-12-15T06:50:18.463Z,0.60
2023-12-15T06:52:46.128Z,0.60
2023-12-15T06:55:13.039Z,0.60
2023-12-15T06:57:39.865Z,0.70
2023-12-15T07:00:08.232Z,0.70
2023-12-15T07:02:36.141Z,0.80
2023-12-15T07:05:03.145Z,0.90
2023-12-15T07:07:30.086Z,0.90
2023-12-15T07:09:56.939Z,1.00
2023-12-15T07:12:23.652Z,1.00
2023-12-15T07:14:50.377Z,1.00
2023-12-15T07:17:17.106Z,1.10
2023-12-15T07:19:43.901Z,1.10
2023-12-15T07:22:10.602Z,1.20
2023-12-15T07:24:37.836Z,1.30
2023-12-15T07:27:05.682Z,1.30
2023-12-15T07:29:32.557Z,1.40
2023-12-15T07:31:59.477Z,1.40
2023-12-15T07:34:26.275Z,1.40
2023-12-15T07:36:52.960Z,1.40
2023-12-15T07:39:22.643Z,1.50
2023-12-15T07:41:50.284Z,1.60
2023-12-15T07:44:17.639Z,1.60
2023-12-15T07:46:44.819Z,1.60
2023-12-15T07:49:11.959Z,1.70
2023-12-15T07:51:38.735Z,1.70
2023-12-15T07:54:05.766Z,1.80
2023-12-15T07:56:32.594Z,1.80
2023-12-15T07:58:59.500Z,1.90
2023-12-15T08:01:26.497Z,2.00
2023-12-15T08:03:53.353Z,2.00
2023-12-15T08:06:21.117Z,2.00
2023-12-15T08:08:49.053Z,2.00
2023-12-15T08:11:16.298Z,2.10
2023-12-15T08:13:43.522Z,2.10
2023-12-15T08:16:14.056Z,2.10
2023-12-15T08:18:43.038Z,2.20
2023-12-15T08:21:11.456Z,2.20
2023-12-15T08:23:38.523Z,2.30
2023-12-15T08:26:05.669Z,2.40
2023-12-15T08:28:32.405Z,2.50
2023-12-15T08:31:00.112Z,2.50
2023-12-15T08:33:28.784Z,2.70
2023-12-15T08:35:55.757Z,2.70
2023-12-15T08:38:22.616Z,2.80
2023-12-15T08:40:49.361Z,2.70
2023-12-15T08:43:16.086Z,2.70
2023-12-15T08:45:42.826Z,2.70
2023-12-15T08:48:09.677Z,2.70
2023-12-15T08:50:36.726Z,2.70
2023-12-15T08:53:03.674Z,2.80
2023-12-15T08:55:30.515Z,2.80
2023-12-15T08:57:57.300Z,2.90
2023-12-15T09:00:24.688Z,3.00
2023-12-15T09:02:53.726Z,3.00
2023-12-15T09:05:38.729Z,3.10
2023-12-15T09:08:11.606Z,3.00
2023-12-15T09:10:43.471Z,3.00
2023-12-15T09:13:11.713Z,3.10
2023-12-15T09:15:38.704Z,3.20
2023-12-15T09:18:06.595Z,3.20
2023-12-15T09:20:35.553Z,3.40
2023-12-15T09:23:10.311Z,3.40
2023-12-15T09:25:37.548Z,3.60
2023-12-15T09:28:06.425Z,3.80
2023-12-15T09:30:34.062Z,3.90
2023-12-15T09:33:01.188Z,4.00
2023-12-15T09:35:28.134Z,4.30
2023-12-15T09:37:54.878Z,4.50
2023-12-15T09:40:24.576Z,4.60
2023-12-15T09:42:51.954Z,4.70
2023-12-15T09:45:19.413Z,4.90
2023-12-15T09:47:49.589Z,5.00
2023-12-15T09:50:20.177Z,4.90
2023-12-15T09:52:47.996Z,4.90
2023-12-15T09:55:15.442Z,5.00
2023-12-15T09:57:43.405Z,5.00
2023-12-15T10:00:11.047Z,5.10
2023-12-15T10:02:38.100Z,5.20
2023-12-15T10:05:05.563Z,5.30
2023-12-15T10:07:32.377Z,5.50
2023-12-15T10:09:59.159Z,5.70
2023-12-15T10:12:26.789Z,5.80
2023-12-15T10:14:53.603Z,5.90
2023-12-15T10:17:20.760Z,5.80
2023-12-15T10:19:47.644Z,6.00
2023-12-15T10:22:14.726Z,5.90
2023-12-15T10:24:41.474Z,5.90
2023-12-15T10:27:09.500Z,5.80
2023-12-15T10:29:40.143Z,6.00
2023-12-15T10:32:07.204Z,6.10
2023-12-15T10:34:34.653Z,5.90
2023-12-15T10:37:02.378Z,5.80
2023-12-15T10:39:30.082Z,6.00
2023-12-15T10:41:58.943Z,6.10
2023-12-15T10:44:27.757Z,6.00
2023-12-15T10:46:54.683Z,6.00
2023-12-15T10:49:21.597Z,5.80
2023-12-15T10:51:49.687Z,5.80
2023-12-15T10:54:18.744Z,5.80
2023-12-15T10:56:46.453Z,5.90
2023-12-15T10:59:13.361Z,5.90
2023-12-15T11:01:41.850Z,6.00
2023-12-15T11:04:23.164Z,6.00
2023-12-15T11:06:50.492Z,6.20
2023-12-15T11:09:49.848Z,6.30
2023-12-15T11:12:25.860Z,6.40
2023-12-15T11:15:13.922Z,6.50
2023-12-15T11:17:47.870Z,6.60
2023-12-15T11:20:25.880Z,6.60
2023-12-15T11:23:08.787Z,6.30
2023-12-15T11:25:39.477Z,6.20
2023-12-15T11:28:10.404Z,6.20
2023-12-15T11:30:42.607Z,6.20
2023-12-15T11:33:28.066Z,6.20
2023-12-15T11:38:50.949Z,6.40
2023-12-15T11:41:24.303Z,6.40
2023-12-15T11:43:52.344Z,6.30
2023-12-15T11:46:22.640Z,6.20
2023-12-15T11:48:49.612Z,6.30
2023-12-15T11:51:19.052Z,6.50
2023-12-15T11:53:48.619Z,6.70
2023-12-15T11:56:16.943Z,6.90
2023-12-15T11:58:43.748Z,6.90
2023-12-15T12:01:10.638Z,7.00
2023-12-15T12:03:37.763Z,7.10
2023-12-15T12:06:06.609Z,7.20
2023-12-15T12:08:34.733Z,7.10
2023-12-15T12:11:04.359Z,7.00
2023-12-15T12:13:33.949Z,6.90
2023-12-15T12:16:01.772Z,6.80
2023-12-15T12:18:29.725Z,6.60
2023-12-15T12:21:17.905Z,6.60
2023-12-15T12:23:46.771Z,6.60
2023-12-15T12:26:15.561Z,6.60
2023-12-15T12:28:50.315Z,6.60
2023-12-15T12:31:18.189Z,6.50
2023-12-15T12:33:45.690Z,6.40
2023-12-15T12:36:15.738Z,6.40
2023-12-15T12:38:42.672Z,6.30
2023-12-15T12:41:09.530Z,6.20
2023-12-15T12:43:36.305Z,6.20
2023-12-15T12:46:03.261Z,6.00
2023-12-15T12:48:32.046Z,6.00
2023-12-15T12:50:59.234Z,5.90
2023-12-15T12:53:27.900Z,5.90
2023-12-15T12:55:54.714Z,5.80
2023-12-15T12:58:22.114Z,5.80
2023-12-15T13:00:52.740Z,5.80
2023-12-15T13:03:20.657Z,5.80
2023-12-15T13:05:47.806Z,5.70
2023-12-15T13:08:15.484Z,5.70
2023-12-15T13:10:42.383Z,5.70
2023-12-15T13:13:09.778Z,5.60
2023-12-15T13:15:36.792Z,5.60
2023-12-15T13:18:03.916Z,5.60
2023-12-15T13:20:30.907Z,5.50
2023-12-15T13:22:59.310Z,5.50
2023-12-15T13:25:26.729Z,5.50
2023-12-15T13:27:53.530Z,5.50
2023-12-15T13:30:20.833Z,5.40
2023-12-15T13:32:49.399Z,5.50
2023-12-15T13:35:16.769Z,5.50
2023-12-15T13:37:44.005Z,5.50
2023-12-15T13:40:12.854Z,5.50
2023-12-15T13:42:40.510Z,5.50
2023-12-15T13:45:08.011Z,5.50
2023-12-15T13:47:35.332Z,5.50
2023-12-15T13:50:02.598Z,5.50
2023-12-15T13:52:29.803Z,5.50
2023-12-15T13:54:56.664Z,5.50
2023-12-15T13:57:23.525Z,5.50
2023-12-15T13:59:52.168Z,5.50
2023-12-15T14:02:19.641Z,5.60
2023-12-15T14:04:46.553Z,5.60
2023-12-15T14:07:13.401Z,5.60
2023-12-15T14:09:42.183Z,5.60
2023-12-15T14:12:09.133Z,5.60
2023-12-15T14:14:36.247Z,5.60
2023-12-15T14:17:04.400Z,5.60
2023-12-15T14:19:31.643Z,5.60
2023-12-15T14:21:58.402Z,5.60
2023-12-15T14:24:25.119Z,5.60
2023-12-15T14:26:51.941Z,5.60
2023-12-15T14:29:19.164Z,5.60
2023-12-15T14:31:45.923Z,5.70
2023-12-15T14:34:12.860Z,5.60
2023-12-15T14:36:39.979Z,5.60
2023-12-15T14:39:07.809Z,5.60
2023-12-15T14:41:38.357Z,5.60
2023-12-15T14:44:05.744Z,5.60
2023-12-15T14:46:33.621Z,5.50
2023-12-15T14:49:00.926Z,5.60
2023-12-15T14:51:28.367Z,5.60
2023-12-15T14:53:55.323Z,5.60
2023-12-15T14:56:22.725Z,5.50
2023-12-15T14:58:49.536Z,5.50
2023-12-15T15:01:19.552Z,5.50
2023-12-15T15:03:48.364Z,5.50
2023-12-15T15:06:21.815Z,5.40
2023-12-15T15:08:53.679Z,5.40
2023-12-15T15:11:20.537Z,5.40
2023-12-15T15:13:47.463Z,5.30
2023-12-15T15:16:14.311Z,5.30
2023-12-15T15:18:43.587Z,5.30
2023-12-15T15:21:12.182Z,5.30
2023-12-15T15:23:38.989Z,5.30
2023-12-15T15:26:05.879Z,5.20
2023-12-15T15:28:32.658Z,5.20
2023-12-15T15:30:59.464Z,5.20
2023-12-15T15:33:29.953Z,5.20
2023-12-15T15:35:57.068Z,5.20
2023-12-15T15:38:27.856Z,5.20
2023-12-15T15:40:55.109Z,5.20
2023-12-15T15:43:22.024Z,5.20
2023-12-15T15:45:49.069Z,5.20
2023-12-15T15:48:16.048Z,5.10
2023-12-15T15:50:42.873Z,5.10
2023-12-15T16:57:57.195Z,5.00
2023-12-15T17:00:24.101Z,5.00
2023-12-15T17:02:50.888Z,5.00
2023-12-15T17:05:17.709Z,5.00
2023-12-15T17:07:44.817Z,5.00
2023-12-15T17:10:12.073Z,5.00
2023-12-15T17:12:39.297Z,5.00
2023-12-15T17:15:06.601Z,5.00
2023-12-15T17:17:34.297Z,5.00
2023-12-15T17:20:01.325Z,5.00
2023-12-15T17:22:29.934Z,5.00
2023-12-15T17:24:57.104Z,5.00
2023-12-15T17:27:24.793Z,5.00
2023-12-15T17:29:51.615Z,5.00
2023-12-15T17:32:19.377Z,5.00
2023-12-15T17:34:46.613Z,5.00
2023-12-15T17:37:13.532Z,5.00
2023-12-15T17:39:41.641Z,5.00
2023-12-15T17:42:08.423Z,5.00
2023-12-15T17:44:35.185Z,5.00
2023-12-15T17:47:01.930Z,5.00
2023-12-15T17:49:28.861Z,5.00
2023-12-15T17:51:55.860Z,5.00
2023-12-15T17:54:22.677Z,5.00
2023-12-15T17:56:49.480Z,5.00
2023-12-15T17:59:16.411Z,5.00
2023-12-15T18:01:43.337Z,5.00
2023-12-15T18:04:10.379Z,5.00
2023-12-15T18:06:37.328Z,5.00
2023-12-15T18:09:05.560Z,5.00
2023-12-15T18:11:32.352Z,5.00
2023-12-15T18:13:59.115Z,5.00
2023-12-15T18:16:28.268Z,5.00
2023-12-15T18:18:56.389Z,5.10
2023-12-15T18:21:23.337Z,5.00
2023-12-15T18:23:50.468Z,5.00
2023-12-15T18:26:20.473Z,5.10
2023-12-15T18:28:47.414Z,5.00
2023-12-15T18:31:14.669Z,6.10
2023-12-15T18:33:42.142Z,4.90
2023-12-15T18:36:09.532Z,5.00
2023-12-15T18:38:37.977Z,4.90
2023-12-15T18:41:04.950Z,4.90
2023-12-15T18:43:31.853Z,4.90
2023-12-15T18:45:58.721Z,4.80
2023-12-15T18:48:26.545Z,4.80
2023-12-15T18:50:53.530Z,4.70
2023-12-15T18:53:20.305Z,4.70
2023-12-15T18:55:47.422Z,4.70
2023-12-15T18:58:14.265Z,4.70
2023-12-15T19:00:43.168Z,4.60
2023-12-15T19:03:10.144Z,4.70
2023-12-15T19:05:37.095Z,4.70
2023-12-15T19:08:03.958Z,4.60
2023-12-15T19:10:31.120Z,4.60
2023-12-15T19:12:58.019Z,4.60
2023-12-15T19:15:26.781Z,4.60
2023-12-15T19:17:55.269Z,4.70
2023-12-15T19:20:22.244Z,4.60
2023-12-15T19:22:49.101Z,4.50
2023-12-15T19:25:17.383Z,4.60
2023-12-15T19:27:44.456Z,4.50
2023-12-15T19:30:12.097Z,4.50
2023-12-15T19:32:41.204Z,4.50
2023-12-15T19:35:08.310Z,4.50
2023-12-15T19:37:36.317Z,4.50
2023-12-15T19:40:05.170Z,4.50
2023-12-15T19:42:33.291Z,4.40
2023-12-15T19:45:00.391Z,4.40
2023-12-15T19:47:27.175Z,4.40
2023-12-15T19:49:55.096Z,4.40
2023-12-15T19:52:22.077Z,4.50
2023-12-15T19:54:49.770Z,4.50
2023-12-15T19:57:17.446Z,4.40
2023-12-15T19:59:44.228Z,4.40
2023-12-15T20:02:14.932Z,4.40
2023-12-15T20:04:46.033Z,4.40
2023-12-15T20:07:13.192Z,4.40
2023-12-15T20:09:40.043Z,4.30
2023-12-15T20:12:07.289Z,4.30
2023-12-15T20:14:34.204Z,4.30
2023-12-15T20:17:01.455Z,4.30
2023-12-15T20:19:28.624Z,4.30
2023-12-15T20:21:55.590Z,4.30
2023-12-15T20:24:22.695Z,4.30
2023-12-15T20:26:49.428Z,4.30
2023-12-15T20:29:16.220Z,4.30
2023-12-15T20:31:46.291Z,4.30
2023-12-15T20:34:13.469Z,4.30
2023-12-15T20:36:40.494Z,4.30
2023-12-15T20:39:07.417Z,4.30
2023-12-15T20:41:34.157Z,4.30
2023-12-15T20:44:01.217Z,4.30
2023-12-15T20:46:29.804Z,4.30
2023-12-15T20:48:58.748Z,4.30
2023-12-15T20:51:25.804Z,4.30
2023-12-15T20:53:52.908Z,4.70
2023-12-15T20:56:26.403Z,4.30
2023-12-15T20:58:53.391Z,4.40
2023-12-15T21:01:20.781Z,4.40
2023-12-15T21:03:48.111Z,4.40
2023-12-15T21:06:22.290Z,4.40
2023-12-15T21:08:55.508Z,4.30
2023-12-15T21:11:23.419Z,4.30
2023-12-15T21:13:52.964Z,4.40
2023-12-15T21:16:28.220Z,4.40
2023-12-15T21:18:55.964Z,4.40
2023-12-15T21:21:35.370Z,4.40
2023-12-15T21:24:02.359Z,4.40
2023-12-15T21:26:29.262Z,4.30
2023-12-15T21:28:56.809Z,4.30
2023-12-15T21:31:24.392Z,4.30
2023-12-15T21:33:51.390Z,4.30
2023-12-15T21:36:18.355Z,4.30
2023-12-15T21:38:45.114Z,4.30
2023-12-15T21:41:16.659Z,4.30
2023-12-15T21:43:43.496Z,4.30
2023-12-15T21:46:10.401Z,4.30
2023-12-15T21:48:37.622Z,4.30
2023-12-15T21:51:04.755Z,4.30
2023-12-15T21:53:31.931Z,4.30
2023-12-15T21:55:58.810Z,4.30
2023-12-15T21:58:25.869Z,4.30
2023-12-15T22:00:52.759Z,4.30
2023-12-15T22:03:20.734Z,4.30
2023-12-15T22:05:47.802Z,4.30
2023-12-15T22:08:14.538Z,4.30
2023-12-15T22:10:41.345Z,4.30
2023-12-15T22:13:08.877Z,4.30
2023-12-15T22:15:35.772Z,4.30
2023-12-15T22:18:02.566Z,4.30
2023-12-15T22:20:31.349Z,4.30
2023-12-15T22:22:59.524Z,4.30
2023-12-15T22:25:26.321Z,4.30
2023-12-15T22:27:53.097Z,4.40
2023-12-15T22:30:25.240Z,4.30
2023-12-15T22:32:52.855Z,4.40
2023-12-15T22:35:19.821Z,4.40
2023-12-15T22:37:46.678Z,4.40
2023-12-15T22:40:13.572Z,4.30
2023-12-15T22:42:40.404Z,4.30
2023-12-15T22:45:08.073Z,4.40
2023-12-15T22:47:35.710Z,4.40
2023-12-15T22:50:04.273Z,4.40
2023-12-15T22:52:31.408Z,4.40
2023-12-15T22:54:58.896Z,4.30
2023-12-15T22:57:25.922Z,4.30
2023-12-15T22:59:53.080Z,4.40
2023-12-15T23:02:19.857Z,4.30
2023-12-15T23:04:46.788Z,4.30
2023-12-15T23:07:13.787Z,4.30
2023-12-15T23:09:40.616Z,4.30
2023-12-15T23:12:07.588Z,4.30
2023-12-15T23:14:36.054Z,4.30
2023-12-15T23:17:03.929Z,4.30
2023-12-15T23:19:31.173Z,4.30
2023-12-15T23:21:58.235Z,4.30
2023-12-15T23:24:24.990Z,4.30
2023-12-15T23:26:51.722Z,4.40
2023-12-15T23:29:18.451Z,4.40
2023-12-15T23:31:45.256Z,4.30
2023-12-15T23:34:12.131Z,4.40
2023-12-15T23:36:38.912Z,4.40
2023-12-15T23:39:06.845Z,4.40
2023-12-15T23:41:33.629Z,4.40
2023-12-15T23:44:00.338Z,4.40
2023-12-15T23:46:27.093Z,4.40
2023-12-15T23:48:53.930Z,4.40
2023-12-15T23:51:20.793Z,4.40
2023-12-15T23:53:47.542Z,4.40
2023-12-15T23:56:14.764Z,4.40
2023-12-15T23:58:42.611Z,4.40
